createdAt,value
2023-03-11T00:02:25.918Z,59.92
2023-03-11T00:04:52.644Z,59.97
2023-03-11T00:07:19.384Z,59.91
2023-03-11T00:09:46.857Z,59.84
2023-03-11T00:12:13.584Z,59.87
2023-03-11T00:14:40.254Z,60.05
2023-03-11T00:17:07.031Z,60.22
2023-03-11T00:19:33.816Z,60.41
2023-03-11T00:22:02.754Z,60.50
2023-03-11T00:24:29.565Z,60.88
2023-03-11T00:26:56.222Z,61.30
2023-03-11T00:29:22.960Z,61.74
2023-03-11T00:31:49.757Z,61.89
2023-03-11T00:34:16.401Z,61.79
2023-03-11T00:36:43.059Z,61.83
2023-03-11T00:39:11.230Z,61.83
2023-03-11T00:41:38.141Z,61.75
2023-03-11T00:44:04.801Z,61.62
2023-03-11T00:46:31.698Z,61.75
2023-03-11T00:48:58.459Z,61.88
2023-03-11T00:51:25.108Z,62.18
2023-03-11T00:53:51.809Z,62.14
2023-03-11T00:56:18.642Z,62.24
2023-03-11T00:58:46.004Z,62.26
2023-03-11T01:01:19.722Z,62.41
2023-03-11T01:03:47.117Z,62.36
2023-03-11T01:06:14.233Z,62.36
2023-03-11T01:08:41.990Z,62.34
2023-03-11T01:11:09.242Z,62.33
2023-03-11T01:13:36.512Z,62.26
2023-03-11T01:16:03.453Z,62.30
2023-03-11T01:18:30.317Z,62.54
2023-03-11T01:20:57.054Z,62.46
2023-03-11T01:23:23.722Z,62.37
2023-03-11T01:25:50.520Z,62.45
2023-03-11T01:28:17.412Z,62.41
2023-03-11T01:30:44.835Z,62.46
2023-03-11T01:33:19.566Z,62.54
2023-03-11T01:35:46.881Z,62.61
2023-03-11T01:38:13.594Z,62.57
2023-03-11T01:40:44.013Z,62.81
2023-03-11T01:43:48.764Z,62.70
2023-03-11T01:46:31.149Z,62.89
2023-03-11T01:49:00.100Z,62.97
2023-03-11T01:51:33.648Z,63.12
2023-03-11T01:54:07.216Z,62.99
2023-03-11T01:56:35.616Z,63.03
2023-03-11T01:59:02.787Z,63.03
2023-03-11T02:01:30.562Z,63.02
2023-03-11T02:03:58.035Z,63.23
2023-03-11T02:06:25.992Z,62.90
2023-03-11T02:08:52.894Z,62.99
2023-03-11T02:11:24.996Z,63.12
2023-03-11T02:13:54.821Z,63.16
2023-03-11T02:16:21.854Z,62.93
2023-03-11T02:18:48.644Z,63.28
2023-03-11T02:21:29.178Z,63.23
2023-03-11T02:23:58.399Z,63.32
2023-03-11T02:26:59.134Z,63.38
2023-03-11T02:29:28.219Z,63.68
2023-03-11T02:31:56.827Z,63.77
2023-03-11T02:34:29.633Z,63.89
2023-03-11T02:36:56.934Z,63.94
2023-03-11T02:39:35.552Z,64.10
2023-03-11T02:42:32.128Z,64.12
2023-03-11T02:45:08.483Z,64.47
2023-03-11T02:47:37.871Z,64.37
2023-03-11T02:50:05.814Z,64.57
2023-03-11T02:52:34.611Z,64.74
2023-03-11T02:55:01.720Z,64.83
2023-03-11T02:57:28.416Z,64.77
2023-03-11T02:59:55.175Z,65.16
2023-03-11T03:02:21.912Z,65.04
2023-03-11T03:04:48.551Z,65.18
2023-03-11T03:07:15.269Z,65.29
2023-03-11T03:09:41.918Z,65.43
2023-03-11T03:12:08.610Z,65.40
2023-03-11T03:14:35.225Z,65.38
2023-03-11T03:17:02.122Z,65.36
2023-03-11T03:19:28.762Z,65.26
2023-03-11T03:21:55.500Z,65.27
2023-03-11T03:24:22.175Z,65.35
2023-03-11T03:26:48.785Z,65.41
2023-03-11T03:29:15.427Z,65.63
2023-03-11T03:31:42.109Z,65.51
2023-03-11T03:34:09.415Z,65.58
2023-03-11T03:36:36.218Z,65.52
2023-03-11T03:39:04.912Z,65.42
2023-03-11T03:41:31.542Z,65.52
2023-03-11T03:43:58.407Z,65.63
2023-03-11T03:46:25.538Z,65.84
2023-03-11T03:48:52.270Z,66.00
2023-03-11T03:51:19.080Z,66.21
2023-03-11T03:53:48.443Z,66.64
2023-03-11T03:56:17.221Z,67.26
2023-03-11T03:58:44.203Z,67.73
2023-03-11T04:01:12.421Z,68.22
2023-03-11T04:03:40.030Z,68.50
2023-03-11T04:06:09.163Z,68.73
2023-03-11T04:08:35.930Z,68.99
2023-03-11T04:11:02.618Z,69.33
2023-03-11T04:13:29.817Z,69.48
2023-03-11T04:15:56.477Z,69.60
2023-03-11T04:18:23.160Z,69.72
2023-03-11T04:20:50.215Z,69.92
2023-03-11T04:23:17.312Z,70.07
2023-03-11T04:25:44.008Z,70.14
2023-03-11T04:28:10.720Z,70.46
2023-03-11T04:30:37.474Z,70.50
2023-03-11T04:33:04.170Z,70.64
2023-03-11T04:35:30.880Z,70.70
2023-03-11T04:37:57.604Z,70.90
2023-03-11T04:40:24.293Z,71.05
2023-03-11T04:42:51.117Z,71.15
2023-03-11T04:45:18.842Z,71.28
2023-03-11T04:47:52.008Z,71.19
2023-03-11T04:50:19.312Z,71.15
2023-03-11T04:52:46.486Z,71.31
2023-03-11T04:55:14.234Z,71.34
2023-03-11T04:57:41.871Z,71.54
2023-03-11T05:00:11.353Z,71.61
2023-03-11T05:02:39.549Z,71.82
2023-03-11T05:05:08.472Z,71.82
2023-03-11T05:07:36.166Z,71.80
2023-03-11T05:10:04.629Z,71.81
2023-03-11T05:12:31.579Z,71.80
2023-03-11T05:14:58.182Z,71.82
2023-03-11T05:17:25.137Z,71.98
2023-03-11T05:19:53.748Z,72.14
2023-03-11T05:22:21.449Z,72.07
2023-03-11T05:24:48.437Z,72.02
2023-03-11T05:27:20.124Z,71.80
2023-03-11T05:29:46.935Z,71.71
2023-03-11T05:32:14.136Z,71.83
2023-03-11T05:34:41.761Z,71.64
2023-03-11T05:37:09.070Z,71.83
2023-03-11T05:39:37.734Z,71.73
2023-03-11T05:42:08.371Z,71.98
2023-03-11T05:44:35.073Z,71.97
2023-03-11T05:47:01.807Z,72.01
2023-03-11T05:49:28.722Z,71.93
2023-03-11T05:51:58.384Z,72.28
2023-03-11T05:54:25.484Z,72.25
2023-03-11T05:56:52.403Z,72.27
2023-03-11T05:59:19.255Z,72.20
2023-03-11T06:01:45.947Z,72.55
2023-03-11T06:04:13.038Z,72.23
2023-03-11T06:06:44.303Z,72.21
2023-03-11T06:09:14.887Z,72.47
2023-03-11T06:11:42.438Z,72.12
2023-03-11T06:14:14.218Z,72.31
2023-03-11T06:16:42.194Z,72.39
2023-03-11T06:19:09.666Z,72.80
2023-03-11T06:21:36.386Z,72.70
2023-03-11T06:24:03.350Z,72.82
2023-03-11T06:26:30.025Z,73.00
2023-03-11T06:28:56.708Z,73.53
2023-03-11T06:31:27.297Z,73.63
2023-03-11T06:33:58.842Z,73.97
2023-03-11T06:36:25.781Z,74.08
2023-03-11T06:38:53.683Z,74.27
2023-03-11T06:41:20.651Z,74.39
2023-03-11T06:43:47.472Z,74.50
2023-03-11T06:46:21.687Z,74.38
2023-03-11T06:48:52.225Z,74.44
2023-03-11T06:51:19.834Z,74.89
2023-03-11T06:53:51.055Z,75.07
2023-03-11T06:56:18.552Z,75.16
2023-03-11T06:58:45.850Z,75.32
2023-03-11T07:01:18.866Z,75.33
2023-03-11T07:03:49.552Z,75.38
2023-03-11T07:06:20.314Z,75.54
2023-03-11T07:08:48.731Z,75.87
2023-03-11T07:11:17.725Z,76.06
2023-03-11T07:13:45.465Z,76.20
2023-03-11T07:16:19.398Z,76.58
2023-03-11T07:18:47.399Z,76.36
2023-03-11T07:21:16.598Z,76.24
2023-03-11T07:23:43.996Z,76.12
2023-03-11T07:26:12.702Z,76.01
2023-03-11T07:28:39.987Z,75.92
2023-03-11T07:31:11.887Z,76.08
2023-03-11T07:33:38.846Z,76.10
2023-03-11T07:36:10.644Z,75.97
2023-03-11T07:38:37.346Z,75.61
2023-03-11T07:41:04.967Z,75.70
2023-03-11T07:43:32.348Z,75.40
2023-03-11T07:46:17.630Z,75.26
2023-03-11T07:48:45.465Z,75.29
2023-03-11T07:51:14.575Z,75.24
2023-03-11T07:53:41.708Z,75.15
2023-03-11T07:56:10.897Z,75.30
2023-03-11T07:58:37.983Z,74.97
2023-03-11T08:01:12.205Z,75.22
2023-03-11T08:03:39.178Z,74.95
2023-03-11T08:06:17.453Z,74.89
2023-03-11T08:08:44.453Z,74.91
2023-03-11T08:11:13.276Z,74.91
2023-03-11T08:13:41.519Z,74.84
2023-03-11T08:16:10.101Z,74.84
2023-03-11T08:18:36.818Z,74.73
2023-03-11T08:21:09.387Z,74.64
2023-03-11T08:23:36.346Z,74.50
2023-03-11T08:26:05.266Z,74.45
2023-03-11T08:28:32.278Z,74.37
2023-03-11T08:30:59.606Z,74.20
2023-03-11T08:33:26.342Z,74.24
2023-03-11T08:35:53.717Z,74.14
2023-03-11T08:38:21.065Z,73.92
2023-03-11T08:40:47.732Z,73.80
2023-03-11T08:43:15.159Z,73.86
2023-03-11T08:45:42.838Z,73.61
2023-03-11T08:48:11.465Z,73.64
2023-03-11T08:50:53.346Z,73.21
2023-03-11T08:53:21.369Z,73.00
2023-03-11T08:55:48.060Z,72.81
2023-03-11T08:58:14.798Z,72.63
2023-03-11T09:00:41.437Z,72.50
2023-03-11T09:03:08.539Z,72.41
2023-03-11T09:05:35.641Z,72.28
2023-03-11T09:08:05.393Z,72.21
2023-03-11T09:10:32.926Z,72.20
2023-03-11T09:12:59.565Z,72.19
2023-03-11T09:15:26.294Z,71.99
2023-03-11T09:17:53.998Z,71.79
2023-03-11T09:20:20.721Z,71.53
2023-03-11T09:22:47.451Z,71.31
2023-03-11T09:25:14.781Z,70.91
2023-03-11T09:27:41.542Z,70.64
2023-03-11T09:30:10.104Z,70.53
2023-03-11T09:32:37.526Z,69.94
2023-03-11T09:35:05.264Z,69.64
2023-03-11T09:37:32.402Z,69.00
2023-03-11T09:39:59.011Z,68.92
2023-03-11T09:42:46.121Z,68.45
2023-03-11T09:45:23.659Z,67.77
2023-03-11T09:47:53.283Z,67.42
2023-03-11T09:50:30.676Z,66.96
2023-03-11T09:53:19.129Z,65.98
2023-03-11T09:55:55.393Z,64.35
2023-03-11T09:58:51.043Z,62.11
2023-03-11T10:01:25.277Z,60.25
2023-03-11T10:03:54.521Z,60.10
2023-03-11T10:06:29.134Z,58.69
2023-03-11T10:09:32.914Z,57.82
2023-03-11T10:12:09.787Z,56.76
2023-03-11T10:14:48.818Z,53.52
2023-03-11T10:17:50.790Z,52.00
2023-03-11T10:20:20.089Z,48.83
2023-03-11T10:22:46.643Z,48.76
2023-03-11T10:25:25.680Z,45.98
2023-03-11T10:28:05.655Z,45.08
2023-03-11T10:30:46.382Z,44.93
2023-03-11T10:33:28.577Z,44.61
2023-03-11T10:35:58.885Z,43.67
2023-03-11T10:38:33.340Z,42.83
2023-03-11T10:41:05.402Z,41.49
2023-03-11T10:43:44.912Z,40.88
2023-03-11T10:46:21.551Z,39.99
2023-03-11T10:48:48.356Z,38.83
2023-03-11T10:51:22.738Z,38.67
2023-03-11T10:53:56.742Z,38.75
2023-03-11T10:56:44.022Z,38.63
2023-03-11T10:59:45.451Z,38.79
2023-03-11T11:02:34.840Z,38.96
2023-03-11T11:05:22.915Z,38.70
2023-03-11T11:08:12.391Z,38.73
2023-03-11T11:10:50.677Z,38.10
2023-03-11T11:13:20.998Z,38.00
2023-03-11T11:15:56.662Z,38.01
2023-03-11T11:19:00.008Z,38.30
2023-03-11T11:21:34.677Z,38.92
2023-03-11T11:24:15.701Z,39.37
2023-03-11T11:26:43.166Z,39.64
2023-03-11T11:29:09.873Z,39.78
2023-03-11T11:31:42.086Z,39.95
2023-03-11T11:34:29.702Z,39.94
2023-03-11T11:37:02.939Z,40.10
2023-03-11T11:39:40.161Z,40.38
2023-03-11T11:42:11.991Z,40.65
2023-03-11T11:44:39.904Z,40.68
2023-03-11T11:47:16.093Z,40.94
2023-03-11T11:49:54.663Z,41.14
2023-03-11T11:52:33.332Z,41.33
2023-03-11T11:55:08.333Z,41.41
2023-03-11T11:57:35.254Z,41.29
2023-03-11T12:00:05.605Z,41.18
2023-03-11T12:02:56.800Z,41.08
2023-03-11T12:05:30.574Z,41.43
2023-03-11T12:08:07.429Z,41.26
2023-03-11T12:10:49.245Z,41.42
2023-03-11T12:13:29.319Z,41.66
2023-03-11T12:16:13.053Z,41.75
2023-03-11T12:18:49.631Z,41.79
2023-03-11T12:21:29.124Z,42.10
2023-03-11T12:24:07.244Z,42.09
2023-03-11T12:26:38.485Z,42.16
2023-03-11T12:29:38.802Z,42.15
2023-03-11T12:32:07.114Z,42.15
2023-03-11T12:34:36.148Z,41.65
2023-03-11T12:37:13.428Z,41.06
2023-03-11T12:39:40.207Z,40.96
2023-03-11T12:42:25.529Z,41.16
2023-03-11T12:44:53.821Z,41.02
2023-03-11T12:47:25.904Z,41.06
2023-03-11T12:50:16.382Z,40.32
2023-03-11T12:53:00.893Z,40.04
2023-03-11T12:55:32.003Z,40.07
2023-03-11T12:58:11.820Z,39.79
2023-03-11T13:01:27.989Z,38.91
2023-03-11T13:04:04.202Z,38.72
2023-03-11T13:06:40.361Z,38.62
2023-03-11T13:09:14.631Z,38.80
2023-03-11T13:11:47.275Z,39.14
2023-03-11T13:14:33.777Z,39.12
2023-03-11T13:17:19.287Z,39.19
2023-03-11T13:19:51.912Z,39.35
2023-03-11T13:22:43.832Z,39.55
2023-03-11T13:25:40.822Z,39.46
2023-03-11T13:28:35.784Z,39.62
2023-03-11T13:31:29.564Z,39.51
2023-03-11T13:34:02.666Z,39.49
2023-03-11T13:37:11.004Z,39.54
2023-03-11T13:39:55.083Z,39.97
2023-03-11T13:42:31.496Z,40.28
2023-03-11T13:44:59.167Z,40.87
2023-03-11T13:47:27.416Z,41.29
2023-03-11T13:49:59.742Z,41.45
2023-03-11T13:52:42.042Z,41.44
2023-03-11T13:55:17.713Z,41.64
2023-03-11T13:57:53.059Z,41.50
2023-03-11T14:00:25.410Z,41.70
2023-03-11T14:02:55.558Z,41.66
2023-03-11T14:05:33.541Z,41.38
2023-03-11T14:08:27.122Z,41.17
2023-03-11T14:10:58.898Z,40.95
2023-03-11T14:13:28.720Z,41.07
2023-03-11T14:16:09.827Z,41.11
2023-03-11T14:18:46.592Z,41.39
2023-03-11T14:21:19.432Z,41.12
2023-03-11T14:23:51.865Z,41.55
2023-03-11T14:26:24.783Z,41.50
2023-03-11T14:28:53.860Z,41.58
2023-03-11T14:31:37.693Z,41.46
2023-03-11T14:34:12.894Z,41.73
2023-03-11T14:36:49.669Z,41.39
2023-03-11T14:39:31.809Z,41.64
2023-03-11T14:42:19.047Z,41.94
2023-03-11T14:44:55.774Z,42.18
2023-03-11T14:47:33.019Z,42.48
2023-03-11T14:50:00.895Z,42.83
2023-03-11T14:52:37.276Z,43.20
2023-03-11T14:55:08.612Z,43.55
2023-03-11T14:57:42.250Z,44.07
2023-03-11T15:00:40.803Z,44.30
2023-03-11T15:03:24.774Z,44.73
2023-03-11T15:05:57.312Z,45.20
2023-03-11T15:08:28.691Z,45.57
2023-03-11T15:11:03.259Z,46.13
2023-03-11T15:13:30.300Z,46.48
2023-03-11T15:16:02.754Z,46.60
2023-03-11T15:18:37.744Z,46.29
2023-03-11T15:21:25.217Z,45.99
2023-03-11T15:24:00.077Z,45.81
2023-03-11T15:26:30.129Z,45.33
2023-03-11T15:29:03.515Z,44.67
2023-03-11T15:31:37.585Z,43.85
2023-03-11T15:34:10.284Z,43.54
2023-03-11T15:36:39.751Z,43.35
2023-03-11T15:39:32.326Z,43.52
2023-03-11T15:42:02.195Z,43.42
2023-03-11T15:44:40.806Z,43.60
2023-03-11T15:47:22.165Z,43.54
2023-03-11T15:49:49.959Z,43.90
2023-03-11T15:52:22.131Z,44.28
2023-03-11T15:54:55.407Z,44.40
2023-03-11T15:57:25.064Z,44.54
2023-03-11T15:59:53.785Z,44.16
2023-03-11T16:02:25.750Z,44.12
2023-03-11T16:04:53.370Z,44.33
2023-03-11T16:07:36.477Z,44.07
2023-03-11T16:10:05.829Z,44.20
2023-03-11T16:12:32.825Z,44.11
2023-03-11T16:14:59.427Z,44.15
2023-03-11T16:17:27.542Z,44.25
2023-03-11T16:19:58.659Z,44.06
2023-03-11T16:22:35.089Z,43.98
2023-03-11T16:25:03.169Z,43.94
2023-03-11T16:27:30.813Z,43.88
2023-03-11T16:29:57.511Z,44.16
2023-03-11T16:32:24.305Z,44.06
2023-03-11T16:34:51.243Z,44.29
2023-03-11T16:37:21.616Z,44.07
2023-03-11T16:39:48.759Z,44.07
2023-03-11T16:42:25.606Z,44.24
2023-03-11T16:44:52.459Z,44.25
2023-03-11T16:47:19.166Z,44.55
2023-03-11T16:49:45.825Z,44.40
2023-03-11T16:52:12.550Z,44.74
2023-03-11T16:54:39.272Z,44.64
2023-03-11T16:57:05.890Z,44.87
2023-03-11T16:59:32.665Z,44.80
2023-03-11T17:01:59.551Z,44.97
2023-03-11T17:04:26.229Z,45.13
2023-03-11T17:06:53.175Z,45.16
2023-03-11T17:09:20.706Z,45.22
2023-03-11T17:11:49.960Z,45.18
2023-03-11T17:14:17.789Z,45.12
2023-03-11T17:16:45.213Z,45.26
2023-03-11T17:19:12.043Z,45.40
2023-03-11T17:21:39.164Z,45.46
2023-03-11T17:24:07.237Z,45.31
2023-03-11T17:26:33.879Z,45.59
2023-03-11T17:29:00.588Z,45.50
2023-03-11T17:31:27.723Z,45.79
2023-03-11T17:33:54.383Z,45.68
2023-03-11T17:36:21.126Z,46.02
2023-03-11T17:38:47.842Z,46.03
2023-03-11T17:41:16.986Z,46.48
2023-03-11T17:43:44.976Z,46.35
2023-03-11T17:46:15.263Z,46.44
2023-03-11T17:48:43.571Z,46.61
2023-03-11T17:51:12.962Z,46.45
2023-03-11T17:53:46.085Z,46.85
2023-03-11T17:56:16.128Z,46.86
2023-03-11T17:58:43.080Z,47.12
2023-03-11T18:01:15.537Z,46.85
2023-03-11T18:03:42.594Z,47.57
2023-03-11T18:06:13.085Z,47.48
2023-03-11T18:08:40.092Z,47.68
2023-03-11T18:11:11.985Z,47.89
2023-03-11T18:13:39.580Z,48.23
2023-03-11T18:16:13.850Z,48.43
2023-03-11T18:18:42.571Z,48.81
2023-03-11T18:21:18.442Z,49.01
2023-03-11T18:23:45.549Z,49.26
2023-03-11T18:26:19.198Z,49.40
2023-03-11T18:28:46.648Z,49.54
2023-03-11T18:31:16.381Z,49.80
2023-03-11T18:33:48.191Z,50.14
2023-03-11T18:36:27.627Z,50.05
2023-03-11T18:38:57.051Z,49.92
2023-03-11T18:41:24.616Z,49.93
2023-03-11T18:43:57.458Z,50.26
2023-03-11T18:46:26.134Z,50.22
2023-03-11T18:48:54.227Z,50.26
2023-03-11T18:51:21.008Z,50.10
2023-03-11T18:53:47.760Z,50.31
2023-03-11T18:56:16.310Z,50.51
2023-03-11T18:58:43.838Z,50.33
2023-03-11T19:01:15.938Z,50.21
2023-03-11T19:03:44.214Z,50.11
2023-03-11T19:06:13.152Z,50.08
2023-03-11T19:08:40.580Z,50.18
2023-03-11T19:11:14.717Z,49.85
2023-03-11T19:13:46.973Z,49.98
2023-03-11T19:16:15.665Z,50.07
2023-03-11T19:18:42.858Z,50.13
2023-03-11T19:21:12.045Z,49.93
2023-03-11T19:23:38.850Z,49.99
2023-03-11T19:26:06.382Z,49.88
2023-03-11T19:28:33.127Z,49.80
2023-03-11T19:31:00.522Z,49.65
2023-03-11T19:33:27.643Z,49.98
2023-03-11T19:35:56.540Z,50.08
2023-03-11T19:38:23.812Z,49.98
2023-03-11T19:40:54.816Z,49.88
2023-03-11T19:43:23.897Z,49.68
2023-03-11T19:45:51.066Z,49.95
2023-03-11T19:48:18.619Z,49.70
2023-03-11T19:50:45.457Z,50.04
2023-03-11T19:53:12.293Z,50.01
2023-03-11T19:55:46.486Z,49.93
2023-03-11T19:58:13.471Z,50.10
2023-03-11T20:00:41.934Z,49.91
2023-03-11T20:03:10.076Z,50.43
2023-03-11T20:05:39.006Z,50.44
2023-03-11T20:08:07.287Z,50.60
2023-03-11T20:10:37.946Z,50.64
2023-03-11T20:13:05.075Z,50.75
2023-03-11T20:15:32.067Z,50.61
2023-03-11T20:18:00.762Z,50.83
2023-03-11T20:20:28.759Z,51.18
2023-03-11T20:22:56.053Z,51.49
2023-03-11T20:25:25.078Z,51.61
2023-03-11T20:27:53.549Z,51.56
2023-03-11T20:30:20.581Z,51.84
2023-03-11T20:32:47.812Z,52.08
2023-03-11T20:35:15.480Z,52.01
2023-03-11T20:37:43.611Z,52.19
2023-03-11T20:40:13.690Z,52.75
2023-03-11T20:42:43.511Z,53.05
2023-03-11T20:45:11.284Z,54.15
2023-03-11T20:47:38.033Z,54.58
2023-03-11T20:50:05.417Z,55.04
2023-03-11T20:52:35.783Z,55.54
2023-03-11T20:55:03.549Z,55.68
2023-03-11T20:57:30.747Z,55.84
2023-03-11T20:59:57.430Z,56.41
2023-03-11T21:02:24.187Z,56.59
2023-03-11T21:04:50.978Z,57.14
2023-03-11T21:07:17.830Z,57.49
2023-03-11T21:09:44.511Z,58.67
2023-03-11T21:12:11.484Z,59.31
2023-03-11T21:14:38.436Z,60.43
2023-03-11T21:17:05.180Z,61.42
2023-03-11T21:19:32.201Z,61.63
2023-03-11T21:21:59.145Z,61.61
2023-03-11T21:24:25.899Z,61.60
2023-03-11T21:26:52.599Z,61.99
2023-03-11T21:29:19.305Z,62.55
2023-03-11T21:31:46.254Z,62.87
2023-03-11T21:34:13.238Z,62.90
2023-03-11T21:36:40.365Z,62.99
2023-03-11T21:39:07.896Z,63.04
2023-03-11T21:41:34.805Z,63.50
2023-03-11T21:44:01.842Z,63.59
2023-03-11T21:46:31.224Z,63.87
2023-03-11T21:48:58.778Z,63.81
2023-03-11T21:51:26.161Z,63.57
2023-03-11T21:53:53.022Z,63.20
2023-03-11T21:56:20.389Z,63.24
2023-03-11T21:58:47.579Z,63.80
2023-03-11T22:01:14.521Z,63.81
2023-03-11T22:03:41.843Z,63.59
2023-03-11T22:06:11.805Z,63.61
2023-03-11T22:08:39.524Z,63.77
2023-03-11T22:11:14.152Z,63.32
2023-03-11T22:13:41.031Z,62.89
2023-03-11T22:16:08.275Z,63.21
2023-03-11T22:18:35.417Z,63.03
2023-03-11T22:21:02.181Z,63.09
2023-03-11T22:23:29.025Z,63.23
2023-03-11T22:25:55.784Z,62.90
2023-03-11T22:28:22.581Z,62.83
2023-03-11T22:30:49.198Z,62.92
2023-03-11T22:33:16.189Z,63.13
2023-03-11T22:35:53.385Z,63.24
2023-03-11T22:38:21.696Z,63.11
2023-03-11T22:40:48.308Z,63.24
2023-03-11T22:43:15.076Z,63.27
2023-03-11T22:45:42.066Z,63.45
2023-03-11T22:48:08.711Z,63.17
2023-03-11T22:50:35.383Z,63.48
2023-03-11T22:53:02.084Z,63.44
2023-03-11T22:55:28.768Z,63.23
2023-03-11T22:57:55.409Z,63.19
2023-03-11T23:00:23.511Z,63.07
2023-03-11T23:02:55.806Z,63.31
2023-03-11T23:05:23.620Z,63.34
2023-03-11T23:07:50.975Z,63.33
2023-03-11T23:10:21.257Z,63.12
2023-03-11T23:12:48.535Z,62.85
2023-03-11T23:15:18.725Z,62.86
2023-03-11T23:17:45.387Z,63.13
2023-03-11T23:20:14.572Z,63.24
2023-03-11T23:22:42.235Z,62.96
2023-03-11T23:25:12.349Z,63.09
2023-03-11T23:27:39.122Z,63.21
2023-03-11T23:30:06.508Z,63.02
2023-03-11T23:32:33.442Z,62.77
2023-03-11T23:35:00.168Z,62.78
2023-03-11T23:37:26.794Z,62.66
2023-03-11T23:39:53.576Z,62.65
2023-03-11T23:42:25.706Z,62.31
2023-03-11T23:44:54.261Z,62.42
2023-03-11T23:47:21.277Z,62.20
2023-03-11T23:49:47.884Z,62.26
2023-03-11T23:52:14.737Z,62.21
2023-03-11T23:54:41.456Z,61.80
2023-03-11T23:57:08.254Z,61.73
2023-03-11T23:59:35.081Z,62.07
